createdAt,value
2023-05-21T00:01:42.852Z,9.70
2023-05-21T00:04:09.810Z,9.53
2023-05-21T00:06:37.072Z,9.73
2023-05-21T00:09:06.362Z,9.20
2023-05-21T00:11:33.453Z,9.60
2023-05-21T00:14:00.334Z,9.23
2023-05-21T00:16:27.308Z,9.47
2023-05-21T00:18:58.210Z,9.53
2023-05-21T00:21:26.029Z,9.30
2023-05-21T00:23:56.886Z,9.80
2023-05-21T00:26:24.217Z,9.23
2023-05-21T00:28:51.150Z,9.73
2023-05-21T00:31:19.062Z,9.30
2023-05-21T00:33:46.043Z,9.10
2023-05-21T00:36:14.544Z,9.53
2023-05-21T00:38:46.120Z,8.47
2023-05-21T00:41:13.633Z,8.63
2023-05-21T00:43:40.616Z,8.60
2023-05-21T00:46:08.719Z,9.10
2023-05-21T00:48:35.675Z,9.13
2023-05-21T00:51:02.633Z,8.40
2023-05-21T00:53:30.136Z,9.50
2023-05-21T00:55:57.428Z,9.10
2023-05-21T00:58:24.356Z,8.73
2023-05-21T01:00:55.691Z,8.63
2023-05-21T01:03:26.304Z,8.77
2023-05-21T01:05:53.423Z,9.03
2023-05-21T01:08:21.768Z,8.63
2023-05-21T01:10:49.905Z,8.93
2023-05-21T01:13:17.763Z,9.40
2023-05-21T01:15:45.493Z,8.70
2023-05-21T01:18:14.283Z,8.33
2023-05-21T01:20:42.564Z,9.10
2023-05-21T01:23:09.595Z,9.00
2023-05-21T01:25:36.897Z,8.43
2023-05-21T01:28:04.088Z,8.90
2023-05-21T01:30:31.263Z,8.47
2023-05-21T01:33:06.249Z,9.07
2023-05-21T01:35:39.406Z,8.40
2023-05-21T01:38:19.829Z,9.03
2023-05-21T01:40:53.390Z,8.77
2023-05-21T01:43:22.673Z,8.53
2023-05-21T01:45:54.796Z,8.40
2023-05-21T01:48:25.770Z,8.67
2023-05-21T01:50:55.233Z,8.80
2023-05-21T01:53:22.399Z,9.00
2023-05-21T01:55:49.388Z,9.33
2023-05-21T01:58:16.895Z,8.00
2023-05-21T02:00:45.384Z,8.33
2023-05-21T02:03:15.065Z,8.20
2023-05-21T02:05:42.104Z,8.20
2023-05-21T02:08:09.204Z,8.60
2023-05-21T02:10:36.798Z,8.43
2023-05-21T02:13:03.769Z,8.50
2023-05-21T02:15:30.654Z,8.23
2023-05-21T02:17:58.397Z,7.93
2023-05-21T02:20:25.476Z,8.80
2023-05-21T02:22:52.320Z,8.43
2023-05-21T02:25:19.903Z,8.53
2023-05-21T02:27:46.957Z,9.00
2023-05-21T02:30:16.018Z,8.07
2023-05-21T02:32:43.713Z,7.73
2023-05-21T02:35:13.058Z,7.83
2023-05-21T02:37:40.755Z,8.37
2023-05-21T02:40:10.133Z,7.83
2023-05-21T02:42:39.736Z,7.87
2023-05-21T02:45:11.869Z,7.80
2023-05-21T02:47:39.163Z,8.20
2023-05-21T02:50:08.494Z,7.63
2023-05-21T02:52:35.583Z,8.13
2023-05-21T02:55:02.474Z,7.53
2023-05-21T02:57:29.365Z,7.30
2023-05-21T02:59:56.353Z,7.50
2023-05-21T03:02:23.838Z,7.70
2023-05-21T03:04:51.490Z,8.07
2023-05-21T03:07:19.825Z,7.10
2023-05-21T03:09:46.940Z,7.40
2023-05-21T03:12:13.936Z,7.17
2023-05-21T03:14:44.136Z,7.50
2023-05-21T03:17:13.785Z,6.77
2023-05-21T03:19:41.862Z,6.70
2023-05-21T03:22:09.012Z,6.93
2023-05-21T03:24:36.743Z,6.63
2023-05-21T03:27:06.344Z,7.17
2023-05-21T03:29:33.926Z,6.53
2023-05-21T03:32:01.990Z,6.93
2023-05-21T03:34:29.001Z,6.67
2023-05-21T03:36:55.881Z,6.80
2023-05-21T03:39:22.822Z,6.13
2023-05-21T03:41:49.715Z,6.87
2023-05-21T03:44:16.645Z,6.50
2023-05-21T03:46:45.414Z,6.27
2023-05-21T03:49:12.384Z,6.30
2023-05-21T03:51:39.576Z,6.43
2023-05-21T03:54:06.542Z,6.53
2023-05-21T03:56:33.472Z,6.63
2023-05-21T03:59:01.313Z,6.70
2023-05-21T04:01:28.395Z,5.90
2023-05-21T04:03:55.692Z,6.53
2023-05-21T04:06:22.786Z,6.67
2023-05-21T04:08:50.095Z,6.70
2023-05-21T04:11:17.086Z,6.23
2023-05-21T04:13:43.929Z,6.20
2023-05-21T04:16:10.934Z,6.77
2023-05-21T04:18:38.012Z,6.67
2023-05-21T04:21:05.132Z,6.37
2023-05-21T04:23:32.038Z,6.77
2023-05-21T04:25:58.931Z,6.90
2023-05-21T04:28:28.773Z,6.17
2023-05-21T04:30:56.518Z,6.03
2023-05-21T04:33:24.560Z,6.13
2023-05-21T04:35:52.008Z,6.57
2023-05-21T04:38:20.692Z,6.23
2023-05-21T04:40:51.767Z,6.33
2023-05-21T04:43:26.774Z,6.43
2023-05-21T04:45:56.869Z,6.50
2023-05-21T04:48:24.836Z,6.17
2023-05-21T04:50:53.521Z,6.30
2023-05-21T04:53:20.693Z,6.57
2023-05-21T04:55:48.054Z,6.33
2023-05-21T04:58:17.778Z,6.13
2023-05-21T05:00:46.925Z,6.53
2023-05-21T05:03:14.499Z,7.13
2023-05-21T05:05:41.931Z,6.40
2023-05-21T05:08:08.885Z,6.87
2023-05-21T05:10:36.256Z,6.43
2023-05-21T05:13:03.607Z,6.90
2023-05-21T05:15:30.567Z,6.93
2023-05-21T05:17:57.499Z,6.70
2023-05-21T05:20:24.344Z,6.50
2023-05-21T05:22:51.290Z,6.77
2023-05-21T05:25:18.437Z,6.57
2023-05-21T05:27:45.288Z,6.53
2023-05-21T05:30:12.584Z,7.10
2023-05-21T05:32:39.453Z,6.93
2023-05-21T05:35:07.546Z,6.90
2023-05-21T05:37:34.378Z,6.70
2023-05-21T05:40:01.252Z,6.90
2023-05-21T05:42:28.252Z,6.80
2023-05-21T05:44:55.115Z,7.40
2023-05-21T05:47:22.086Z,7.37
2023-05-21T05:49:49.111Z,6.80
2023-05-21T05:52:16.189Z,7.13
2023-05-21T05:54:43.054Z,7.43
2023-05-21T05:57:09.902Z,6.93
2023-05-21T05:59:36.978Z,7.47
2023-05-21T06:02:03.993Z,7.03
2023-05-21T06:04:30.982Z,7.10
2023-05-21T06:06:58.440Z,7.17
2023-05-21T06:09:25.422Z,7.57
2023-05-21T06:11:52.411Z,7.23
2023-05-21T06:14:19.270Z,7.00
2023-05-21T06:16:46.166Z,7.70
2023-05-21T06:19:13.308Z,7.57
2023-05-21T06:21:40.198Z,7.63
2023-05-21T06:24:07.269Z,7.53
2023-05-21T06:26:34.178Z,8.07
2023-05-21T06:29:01.154Z,8.03
2023-05-21T06:31:28.039Z,7.70
2023-05-21T06:33:55.047Z,7.97
2023-05-21T06:36:22.139Z,7.43
2023-05-21T06:38:49.105Z,7.97
2023-05-21T06:41:15.970Z,7.63
2023-05-21T06:43:42.840Z,7.63
2023-05-21T06:46:09.729Z,8.20
2023-05-21T06:48:36.642Z,7.43
2023-05-21T06:51:03.543Z,7.70
2023-05-21T06:53:30.506Z,8.17
2023-05-21T06:55:57.445Z,7.50
2023-05-21T06:58:24.432Z,7.60
2023-05-21T07:00:51.303Z,8.10
2023-05-21T07:03:18.348Z,8.00
2023-05-21T07:05:45.298Z,7.67
2023-05-21T07:08:12.417Z,7.17
2023-05-21T07:10:39.319Z,8.07
2023-05-21T07:13:06.189Z,7.60
2023-05-21T07:15:33.131Z,7.60
2023-05-21T07:18:00.169Z,7.57
2023-05-21T07:20:27.057Z,7.63
2023-05-21T07:22:53.900Z,8.13
2023-05-21T07:25:20.861Z,7.73
2023-05-21T07:27:47.704Z,8.07
2023-05-21T07:30:15.161Z,8.53
2023-05-21T07:32:42.387Z,8.07
2023-05-21T07:35:09.665Z,7.73
2023-05-21T07:37:36.623Z,8.17
2023-05-21T07:40:07.715Z,8.20
2023-05-21T07:42:35.391Z,8.47
2023-05-21T07:45:02.422Z,8.60
2023-05-21T07:47:29.350Z,8.40
2023-05-21T07:49:56.231Z,8.17
2023-05-21T07:52:23.151Z,9.13
2023-05-21T07:54:50.093Z,8.27
2023-05-21T07:57:17.047Z,8.87
2023-05-21T07:59:43.918Z,8.27
2023-05-21T08:02:10.985Z,9.20
2023-05-21T08:04:40.925Z,8.20
2023-05-21T08:07:09.677Z,8.97
2023-05-21T08:09:36.814Z,8.67
2023-05-21T08:12:04.056Z,7.70
2023-05-21T08:14:31.194Z,8.57
2023-05-21T08:16:58.379Z,8.53
2023-05-21T08:19:25.395Z,9.30
2023-05-21T08:21:53.104Z,8.23
2023-05-21T08:24:20.284Z,8.63
2023-05-21T08:26:47.511Z,7.77
2023-05-21T08:29:14.408Z,7.70
2023-05-21T08:31:41.523Z,8.10
2023-05-21T08:34:08.463Z,8.30
2023-05-21T08:36:36.009Z,8.40
2023-05-21T08:39:02.905Z,7.97
2023-05-21T08:41:31.372Z,8.47
2023-05-21T08:44:02.706Z,8.53
2023-05-21T08:46:36.330Z,8.70
2023-05-21T08:49:03.930Z,7.97
2023-05-21T08:51:31.576Z,8.17
2023-05-21T08:54:01.759Z,8.07
2023-05-21T08:56:31.704Z,7.20
2023-05-21T08:58:59.516Z,7.70
2023-05-21T09:01:26.985Z,7.40
2023-05-21T09:04:04.765Z,7.57
2023-05-21T09:06:35.662Z,7.97
2023-05-21T09:09:18.713Z,7.60
2023-05-21T09:11:47.478Z,7.50
2023-05-21T09:14:15.796Z,8.23
2023-05-21T09:16:42.774Z,7.67
2023-05-21T09:19:09.720Z,7.90
2023-05-21T09:21:36.813Z,7.40
2023-05-21T09:24:04.410Z,7.40
2023-05-21T09:26:31.402Z,7.47
2023-05-21T09:29:01.028Z,8.10
2023-05-21T09:31:29.594Z,7.10
2023-05-21T09:33:56.622Z,7.33
2023-05-21T09:36:24.086Z,6.10
2023-05-21T09:38:52.081Z,6.60
2023-05-21T09:41:22.213Z,6.10
2023-05-21T09:43:49.617Z,5.80
2023-05-21T09:46:20.767Z,6.43
2023-05-21T09:48:47.698Z,6.50
2023-05-21T09:51:16.522Z,6.77
2023-05-21T09:53:54.657Z,6.50
2023-05-21T09:56:26.743Z,6.60
2023-05-21T09:59:00.393Z,6.70
2023-05-21T10:01:28.783Z,6.27
2023-05-21T10:03:58.240Z,7.37
2023-05-21T10:06:31.057Z,7.07
2023-05-21T10:09:04.650Z,6.47
2023-05-21T10:11:33.893Z,6.73
2023-05-21T10:14:09.871Z,7.57
2023-05-21T10:16:37.667Z,7.00
2023-05-21T10:19:06.017Z,6.63
2023-05-21T10:21:35.658Z,6.87
2023-05-21T10:24:04.255Z,6.40
2023-05-21T10:26:31.315Z,6.60
2023-05-21T10:29:00.355Z,7.10
2023-05-21T10:31:27.860Z,15.47
2023-05-21T10:33:55.568Z,29.27
2023-05-21T10:36:25.616Z,6.90
2023-05-21T10:38:53.282Z,6.60
2023-05-21T10:41:21.843Z,6.53
2023-05-21T10:44:27.626Z,6.53
2023-05-21T10:47:33.949Z,7.07
2023-05-21T10:51:01.593Z,6.57
2023-05-21T10:53:34.125Z,7.03
2023-05-21T10:56:25.308Z,6.00
2023-05-21T10:59:12.511Z,6.33
2023-05-21T11:01:41.408Z,5.75
2023-05-21T11:04:08.619Z,5.90
2023-05-21T11:06:35.659Z,6.15
2023-05-21T11:09:15.047Z,6.15
2023-05-21T11:11:52.882Z,6.50
2023-05-21T11:14:42.940Z,6.43
2023-05-21T11:17:17.496Z,6.35
2023-05-21T11:19:47.943Z,5.82
2023-05-21T11:22:27.714Z,5.78
2023-05-21T11:24:57.829Z,5.85
2023-05-21T11:27:38.017Z,6.22
2023-05-21T11:30:08.924Z,6.70
2023-05-21T11:32:40.349Z,5.85
2023-05-21T11:35:08.063Z,5.70
2023-05-21T11:37:35.282Z,5.95
2023-05-21T11:40:26.219Z,5.93
2023-05-21T11:42:55.636Z,6.10
2023-05-21T11:45:27.712Z,6.28
2023-05-21T11:47:56.173Z,6.18
2023-05-21T11:50:23.199Z,6.32
2023-05-21T11:52:51.031Z,6.53
2023-05-21T11:55:23.814Z,5.90
2023-05-21T11:57:54.146Z,6.28
2023-05-21T12:00:21.692Z,6.15
2023-05-21T12:02:52.688Z,6.43
2023-05-21T12:05:20.582Z,6.20
2023-05-21T12:07:50.183Z,6.22
2023-05-21T12:10:20.946Z,6.20
2023-05-21T12:12:55.645Z,6.00
2023-05-21T12:15:25.270Z,6.07
2023-05-21T12:17:55.461Z,6.07
2023-05-21T12:20:23.262Z,5.63
2023-05-21T12:22:50.431Z,6.38
2023-05-21T12:25:21.239Z,5.82
2023-05-21T12:27:52.488Z,5.75
2023-05-21T12:30:20.647Z,5.88
2023-05-21T12:32:48.935Z,6.30
2023-05-21T12:35:24.016Z,5.88
2023-05-21T12:37:51.753Z,5.70
2023-05-21T12:40:18.998Z,5.80
2023-05-21T12:42:46.043Z,6.00
2023-05-21T12:45:13.531Z,6.28
2023-05-21T12:47:40.519Z,5.63
2023-05-21T12:50:14.060Z,6.10
2023-05-21T12:52:44.301Z,6.55
2023-05-21T12:55:15.014Z,6.07
2023-05-21T12:57:43.812Z,6.20
2023-05-21T13:00:11.642Z,5.60
2023-05-21T13:02:44.172Z,5.88
2023-05-21T13:05:18.304Z,5.78
2023-05-21T13:07:48.705Z,6.65
2023-05-21T13:10:16.850Z,6.50
2023-05-21T13:12:44.986Z,6.43
2023-05-21T13:15:12.538Z,6.15
2023-05-21T13:17:39.495Z,6.47
2023-05-21T13:20:21.432Z,6.13
2023-05-21T13:22:51.618Z,6.10
2023-05-21T13:25:22.163Z,5.88
2023-05-21T13:27:51.840Z,5.82
2023-05-21T13:30:19.812Z,6.20
2023-05-21T13:32:47.004Z,5.63
2023-05-21T13:35:16.328Z,5.93
2023-05-21T13:37:43.298Z,5.50
2023-05-21T13:40:14.407Z,5.75
2023-05-21T13:42:42.164Z,5.72
2023-05-21T13:45:11.790Z,6.18
2023-05-21T13:47:40.474Z,5.20
2023-05-21T13:50:09.200Z,5.57
2023-05-21T13:52:36.936Z,6.10
2023-05-21T13:55:04.261Z,5.50
2023-05-21T13:57:31.823Z,5.53
2023-05-21T13:59:59.535Z,5.15
2023-05-21T14:02:26.547Z,5.80
2023-05-21T14:04:53.748Z,5.65
2023-05-21T14:07:21.517Z,5.82
2023-05-21T14:09:48.874Z,5.68
2023-05-21T14:12:16.865Z,6.03
2023-05-21T14:14:43.851Z,6.25
2023-05-21T14:17:10.698Z,5.82
2023-05-21T14:19:37.627Z,5.97
2023-05-21T14:22:04.738Z,6.00
2023-05-21T14:24:31.611Z,5.78
2023-05-21T14:26:58.497Z,5.72
2023-05-21T14:29:25.502Z,6.13
2023-05-21T14:31:52.476Z,5.85
2023-05-21T14:34:19.457Z,5.50
2023-05-21T14:36:46.496Z,5.75
2023-05-21T14:39:13.397Z,5.70
2023-05-21T14:41:40.406Z,5.82
2023-05-21T14:44:07.382Z,5.10
2023-05-21T14:46:34.420Z,5.78
2023-05-21T14:49:01.432Z,5.72
2023-05-21T14:51:28.366Z,5.70
2023-05-21T14:53:57.496Z,5.85
2023-05-21T14:56:27.232Z,5.30
2023-05-21T14:58:54.614Z,5.63
2023-05-21T15:01:21.821Z,5.45
2023-05-21T15:03:49.027Z,5.63
2023-05-21T15:06:16.031Z,5.68
2023-05-21T15:08:42.899Z,5.95
2023-05-21T15:11:10.062Z,6.05
2023-05-21T15:13:37.737Z,5.85
2023-05-21T15:16:04.880Z,5.90
2023-05-21T15:18:31.771Z,5.13
2023-05-21T15:20:59.136Z,5.28
2023-05-21T15:23:25.981Z,5.05
2023-05-21T15:25:52.960Z,5.72
2023-05-21T15:28:20.116Z,6.05
2023-05-21T15:30:46.988Z,5.40
2023-05-21T15:33:14.026Z,5.97
2023-05-21T15:35:41.597Z,5.85
2023-05-21T15:38:08.773Z,5.82
2023-05-21T15:40:35.693Z,5.43
2023-05-21T15:43:02.744Z,6.55
2023-05-21T15:45:29.619Z,5.88
2023-05-21T15:47:56.491Z,5.80
2023-05-21T15:50:23.443Z,6.10
2023-05-21T15:52:53.004Z,5.70
2023-05-21T15:55:20.479Z,5.82
2023-05-21T15:57:47.506Z,5.18
2023-05-21T16:00:14.836Z,5.93
2023-05-21T16:02:42.002Z,5.70
2023-05-21T16:05:09.596Z,5.80
2023-05-21T16:07:38.127Z,5.90
2023-05-21T16:10:07.929Z,5.95
2023-05-21T16:12:34.797Z,6.80
2023-05-21T16:15:01.676Z,5.88
2023-05-21T16:17:29.236Z,6.28
2023-05-21T16:19:56.088Z,6.28
2023-05-21T16:22:23.900Z,6.40
2023-05-21T16:24:50.857Z,6.57
2023-05-21T16:27:17.804Z,5.65
2023-05-21T16:29:45.029Z,6.40
2023-05-21T16:32:13.845Z,6.07
2023-05-21T16:34:41.080Z,6.82
2023-05-21T16:37:09.609Z,6.70
2023-05-21T16:39:36.753Z,6.30
2023-05-21T16:42:03.831Z,6.90
2023-05-21T16:44:32.003Z,6.88
2023-05-21T16:46:59.953Z,6.88
2023-05-21T16:49:27.909Z,7.30
2023-05-21T16:51:54.983Z,7.00
2023-05-21T16:54:22.171Z,7.00
2023-05-21T16:56:49.073Z,6.80
2023-05-21T16:59:16.142Z,6.83
2023-05-21T17:01:43.134Z,6.70
2023-05-21T17:04:10.883Z,6.80
2023-05-21T17:06:37.833Z,6.97
2023-05-21T17:09:04.771Z,7.18
2023-05-21T17:11:31.681Z,7.30
2023-05-21T17:13:58.732Z,6.60
2023-05-21T17:16:25.665Z,7.20
2023-05-21T17:18:52.691Z,7.17
2023-05-21T17:21:19.835Z,7.27
2023-05-21T17:23:46.773Z,6.90
2023-05-21T17:26:13.965Z,7.10
2023-05-21T17:28:40.980Z,7.30
2023-05-21T17:31:08.783Z,7.17
2023-05-21T17:33:37.429Z,7.20
2023-05-21T17:36:04.641Z,6.93
2023-05-21T17:38:31.526Z,6.80
2023-05-21T17:40:59.163Z,6.87
2023-05-21T17:43:27.562Z,6.80
2023-05-21T17:45:54.434Z,7.53
2023-05-21T17:48:21.538Z,7.13
2023-05-21T17:50:48.605Z,7.23
2023-05-21T17:53:16.278Z,7.23
2023-05-21T17:55:43.212Z,7.43
2023-05-21T17:58:10.180Z,6.67
2023-05-21T18:00:37.183Z,6.90
2023-05-21T18:03:04.440Z,7.27
2023-05-21T18:05:31.464Z,7.13
2023-05-21T18:08:01.145Z,7.77
2023-05-21T18:10:28.237Z,7.57
2023-05-21T18:12:55.358Z,7.43
2023-05-21T18:15:22.288Z,6.93
2023-05-21T18:17:49.182Z,7.57
2023-05-21T18:20:16.172Z,7.37
2023-05-21T18:22:44.756Z,7.50
2023-05-21T18:25:11.656Z,6.90
2023-05-21T18:27:38.525Z,7.13
2023-05-21T18:30:06.893Z,7.57
2023-05-21T18:32:34.673Z,7.03
2023-05-21T18:35:01.597Z,7.47
2023-05-21T18:37:29.172Z,7.30
2023-05-21T18:39:56.081Z,7.33
2023-05-21T18:42:23.086Z,7.27
2023-05-21T18:44:52.825Z,7.10
2023-05-21T18:47:19.677Z,7.67
2023-05-21T18:49:46.552Z,7.30
2023-05-21T18:52:14.054Z,7.83
2023-05-21T18:54:41.167Z,7.57
2023-05-21T18:57:08.056Z,7.83
2023-05-21T18:59:35.010Z,7.97
2023-05-21T19:02:03.332Z,8.13
2023-05-21T19:04:30.895Z,7.60
2023-05-21T19:06:57.770Z,7.47
2023-05-21T19:09:24.665Z,7.90
2023-05-21T19:11:51.727Z,8.00
2023-05-21T19:14:20.272Z,6.93
2023-05-21T19:16:47.359Z,7.60
2023-05-21T19:19:14.277Z,7.53
2023-05-21T19:21:41.400Z,7.63
2023-05-21T19:24:08.355Z,7.93
2023-05-21T19:26:35.252Z,7.57
2023-05-21T19:29:02.143Z,6.73
2023-05-21T19:31:29.004Z,7.40
2023-05-21T19:33:56.044Z,6.97
2023-05-21T19:36:24.881Z,7.27
2023-05-21T19:38:51.765Z,6.93
2023-05-21T19:41:20.103Z,7.40
2023-05-21T19:43:47.403Z,7.40
2023-05-21T19:46:18.149Z,6.83
2023-05-21T19:48:46.867Z,6.80
2023-05-21T19:51:13.747Z,6.70
2023-05-21T19:53:40.752Z,7.20
2023-05-21T19:56:07.949Z,7.17
2023-05-21T19:58:34.913Z,7.27
2023-05-21T20:01:03.451Z,7.40
2023-05-21T20:03:35.696Z,7.03
2023-05-21T20:06:03.524Z,6.90
2023-05-21T20:08:30.923Z,7.67
2023-05-21T20:10:57.779Z,7.53
2023-05-21T20:13:24.828Z,7.30
2023-05-21T20:15:51.754Z,7.16
2023-05-21T20:18:21.337Z,7.30
2023-05-21T20:20:49.120Z,7.30
2023-05-21T20:23:15.956Z,7.60
2023-05-21T20:25:42.899Z,7.13
2023-05-21T20:28:09.860Z,7.10
2023-05-21T20:30:59.002Z,7.80
2023-05-21T20:33:31.599Z,7.33
2023-05-21T20:35:58.923Z,7.17
2023-05-21T20:38:26.089Z,7.20
2023-05-21T20:40:56.678Z,7.57
2023-05-21T20:43:24.410Z,7.93
2023-05-21T20:45:59.386Z,7.73
2023-05-21T20:48:31.916Z,7.67
2023-05-21T20:51:00.051Z,7.53
2023-05-21T20:53:27.232Z,7.30
2023-05-21T20:55:54.819Z,7.87
2023-05-21T20:58:23.973Z,7.40
2023-05-21T21:00:51.123Z,7.33
2023-05-21T21:03:18.804Z,7.57
2023-05-21T21:05:45.769Z,7.60
2023-05-21T21:08:12.750Z,8.00
2023-05-21T21:10:42.265Z,7.67
2023-05-21T21:13:09.204Z,8.10
2023-05-21T21:15:36.362Z,8.10
2023-05-21T21:18:03.513Z,8.07
2023-05-21T21:20:30.432Z,8.47
2023-05-21T21:22:57.294Z,7.87
2023-05-21T21:25:24.323Z,8.00
2023-05-21T21:27:51.146Z,8.23
2023-05-21T21:30:18.049Z,7.57
2023-05-21T21:32:47.431Z,8.00
2023-05-21T21:35:14.416Z,8.33
2023-05-21T21:37:41.293Z,7.97
2023-05-21T21:40:09.129Z,8.13
2023-05-21T21:42:36.398Z,8.33
2023-05-21T21:45:04.705Z,7.87
2023-05-21T21:47:31.730Z,8.20
2023-05-21T21:49:58.758Z,8.20
2023-05-21T21:52:28.661Z,8.07
2023-05-21T21:54:56.672Z,7.63
2023-05-21T21:57:24.252Z,8.30
2023-05-21T21:59:51.135Z,8.37
2023-05-21T22:02:18.303Z,7.90
2023-05-21T22:04:45.470Z,8.60
2023-05-21T22:07:18.229Z,8.30
2023-05-21T22:09:45.805Z,8.33
2023-05-21T22:12:13.227Z,7.83
2023-05-21T22:14:40.193Z,8.47
2023-05-21T22:17:08.516Z,8.40
2023-05-21T22:19:35.887Z,9.03
2023-05-21T22:22:04.119Z,8.50
2023-05-21T22:24:32.549Z,8.30
2023-05-21T22:26:59.954Z,9.00
2023-05-21T22:29:26.824Z,8.50
2023-05-21T22:31:53.700Z,8.57
2023-05-21T22:34:20.600Z,8.77
2023-05-21T22:36:47.500Z,8.70
2023-05-21T22:39:14.661Z,8.50
2023-05-21T22:41:42.013Z,9.00
2023-05-21T22:44:09.093Z,8.50
2023-05-21T22:46:36.005Z,8.67
2023-05-21T22:49:03.023Z,8.20
2023-05-21T22:51:34.445Z,8.20
2023-05-21T22:54:01.731Z,8.30
2023-05-21T22:56:28.977Z,9.23
2023-05-21T22:58:56.340Z,8.63
2023-05-21T23:01:23.456Z,8.67
2023-05-21T23:03:51.751Z,9.23
2023-05-21T23:06:18.744Z,9.10
2023-05-21T23:08:45.852Z,8.63
2023-05-21T23:11:12.789Z,8.90
2023-05-21T23:13:39.666Z,8.70
2023-05-21T23:16:07.391Z,9.30
2023-05-21T23:18:35.529Z,9.13
2023-05-21T23:21:02.568Z,9.00
2023-05-21T23:23:29.644Z,9.10
2023-05-21T23:25:58.738Z,8.80
2023-05-21T23:28:25.917Z,8.80
2023-05-21T23:30:53.074Z,9.10
2023-05-21T23:33:20.323Z,8.67
2023-05-21T23:35:47.272Z,9.33
2023-05-21T23:38:14.329Z,8.53
2023-05-21T23:40:41.762Z,9.33
2023-05-21T23:43:08.638Z,8.77
2023-05-21T23:45:35.622Z,8.63
2023-05-21T23:48:02.612Z,8.40
2023-05-21T23:50:29.581Z,8.63
2023-05-21T23:52:56.762Z,8.60
2023-05-21T23:55:23.709Z,8.90
2023-05-21T23:57:50.556Z,8.60
